NCAR-RAP Real-Time Weather Data

Output produced by METARs form (08 May 2021  16:50 UTC)
found at http://weather.rap.ucar.edu/surface/
 
KOKB 081614Z AUTO 19003KT 9SM OVC030 18/09 A2997 RMK AO2 T01780094
KOKB 081552Z AUTO 11004KT 9SM OVC029 17/09 A2996 RMK AO2 SLP145 T01720094
KOKB 081452Z AUTO 10005KT 10SM OVC028 16/09 A2995 RMK AO2 SLP142 T01610094 53013
KOKB 081352Z AUTO 13005KT 10SM OVC028 16/09 A2993 RMK AO2 SLP136 T01610094
KOKB 081252Z AUTO 16004KT 10SM OVC028 16/09 A2991 RMK AO2 SLP129 T01560094
KOKB 081152Z AUTO 17004KT 10SM OVC025 16/10 A2991 RMK AO2 SLP129 T01610100 10161 20156 56007
KOKB 081052Z AUTO 16003KT 10SM OVC024 16/10 A2992 RMK AO2 SLP130 T01560100
KOKB 080952Z AUTO 13003KT 10SM OVC024 16/10 A2992 RMK AO2 SLP131 T01560100
KOKB 080852Z AUTO 11006KT 10SM OVC021 16/11 A2993 RMK AO2 SLP135 T01560106 58006
KOKB 080752Z AUTO 11006KT 10SM OVC020 16/11 A2995 RMK AO2 SLP141 T01560106 402110150
KOKB 080652Z AUTO 17005KT 10SM OVC020 16/11 A2995 RMK AO2 SLP143 T01560111
KOKB 080552Z AUTO 13005KT 10SM OVC021 16/11 A2995 RMK AO2 SLP142 T01610111 10183 20150 50003
KOKB 080452Z AUTO 00000KT 10SM OVC021 16/11 A2996 RMK AO2 SLP144 T01610106
KOKB 080401Z AUTO 21005KT 10SM BKN021 16/11 A2995 RMK AO2 T01560111
KOKB 080352Z AUTO 20006KT 10SM SCT020 16/11 A2995 RMK AO2 SLP142 T01560111